Terminal Aerodrome Forecast
Issued by NWS

Home | Current Version | Previous Version | Text Only | Print | Product List | Glossary On
Versions: 1 2 3 4 5 6 7 8 9 10 11 12 13 14 15 16 17 18
000
FTUS41 KGYX 012322
TAFAUG
TAF
KAUG 012322Z 0200/0224 28008G17KT P6SM SKC
     FM020200 33006KT P6SM BKN200
     FM020800 02008KT P6SM OVC040
     FM021200 03011KT 2SM -SN BR OVC010
     FM021700 03015G25KT 1/2SM SN OVC005=

USA.gov is the U.S. government's official web portal to all federal, state and local government web resources and services.